createdAt,value
2018-08-18T00:00:05.988Z,22.6
2018-08-18T00:00:46.538Z,22.62
2018-08-18T00:01:27.093Z,22.6
2018-08-18T00:02:07.686Z,22.62
2018-08-18T00:02:48.304Z,22.54
2018-08-18T00:03:28.908Z,22.6
2018-08-18T00:04:09.501Z,22.63
2018-08-18T00:04:50.096Z,22.62
2018-08-18T00:05:30.658Z,22.54
2018-08-18T00:06:11.234Z,22.62
2018-08-18T00:06:51.795Z,22.59
2018-08-18T00:07:32.377Z,22.6
2018-08-18T00:08:12.928Z,22.59
2018-08-18T00:08:53.509Z,22.55
2018-08-18T00:09:34.072Z,22.59
2018-08-18T00:10:14.645Z,22.55
2018-08-18T00:10:55.199Z,22.51
2018-08-18T00:11:35.767Z,22.55
2018-08-18T00:12:16.334Z,22.59
2018-08-18T00:12:56.890Z,22.51
2018-08-18T00:13:37.453Z,22.54
2018-08-18T00:14:18.023Z,22.54
2018-08-18T00:14:58.634Z,22.53
2018-08-18T00:15:39.206Z,22.51
2018-08-18T00:16:19.765Z,22.53
2018-08-18T00:17:00.950Z,22.57
2018-08-18T00:17:41.517Z,22.55
2018-08-18T00:18:22.090Z,22.55
2018-08-18T00:19:02.644Z,22.53
2018-08-18T00:19:43.213Z,22.51
2018-08-18T00:20:23.790Z,22.57
2018-08-18T00:21:04.354Z,22.53
2018-08-18T00:21:44.911Z,22.55
2018-08-18T00:22:25.493Z,22.55
2018-08-18T00:23:06.118Z,22.54
2018-08-18T00:23:46.685Z,22.44
2018-08-18T00:24:27.246Z,22.48
2018-08-18T00:25:07.816Z,22.55
2018-08-18T00:25:48.375Z,22.55
2018-08-18T00:26:28.980Z,22.51
2018-08-18T00:27:09.547Z,22.55
2018-08-18T00:27:50.102Z,22.51
2018-08-18T00:28:30.661Z,22.57
2018-08-18T00:29:11.228Z,22.53
2018-08-18T00:29:51.822Z,22.55
2018-08-18T00:30:32.387Z,22.59
2018-08-18T00:31:12.946Z,22.54
2018-08-18T00:31:53.515Z,22.53
2018-08-18T00:32:34.086Z,22.5
2018-08-18T00:33:14.637Z,22.5
2018-08-18T00:33:55.278Z,22.53
2018-08-18T00:34:35.830Z,22.5
2018-08-18T00:35:16.388Z,22.54
2018-08-18T00:35:56.947Z,22.54
2018-08-18T00:36:37.539Z,22.54
2018-08-18T00:37:18.084Z,22.51
2018-08-18T00:37:58.664Z,22.54
2018-08-18T00:38:39.233Z,22.57
2018-08-18T00:39:19.806Z,22.54
2018-08-18T00:40:00.368Z,22.54
2018-08-18T00:40:40.938Z,22.62
2018-08-18T00:41:21.508Z,22.55
2018-08-18T00:42:02.097Z,22.54
2018-08-18T00:42:42.669Z,22.6
2018-08-18T00:43:23.255Z,22.6
2018-08-18T00:44:03.813Z,22.59
2018-08-18T00:44:44.385Z,22.63
2018-08-18T00:45:24.925Z,22.57
2018-08-18T00:46:05.494Z,22.55
2018-08-18T00:46:46.061Z,22.55
2018-08-18T00:47:26.625Z,22.59
2018-08-18T00:48:07.188Z,22.63
2018-08-18T00:48:47.753Z,22.55
2018-08-18T00:49:28.322Z,22.59
2018-08-18T00:50:08.890Z,22.62
2018-08-18T00:50:49.461Z,22.68
2018-08-18T00:51:30.040Z,22.57
2018-08-18T00:52:10.642Z,22.69
2018-08-18T00:52:51.199Z,22.75
2018-08-18T00:53:31.806Z,22.69
2018-08-18T00:54:12.409Z,22.66
2018-08-18T00:54:53.050Z,22.65
2018-08-18T00:55:33.620Z,22.63
2018-08-18T00:56:14.197Z,22.65
2018-08-18T00:56:54.772Z,22.62
2018-08-18T00:57:35.343Z,22.68
2018-08-18T00:58:15.934Z,22.65
2018-08-18T00:58:56.503Z,22.73
2018-08-18T00:59:37.096Z,22.73
2018-08-18T01:00:17.659Z,22.66
2018-08-18T01:00:58.224Z,22.69
2018-08-18T01:01:38.775Z,22.68
2018-08-18T01:02:19.354Z,22.65
2018-08-18T01:02:59.941Z,22.72
2018-08-18T01:03:40.514Z,22.7
2018-08-18T01:04:21.092Z,22.68
2018-08-18T01:05:01.709Z,22.65
2018-08-18T01:05:42.270Z,22.7
2018-08-18T01:06:22.845Z,22.69
2018-08-18T01:07:03.425Z,22.63
2018-08-18T01:07:44.000Z,22.65
2018-08-18T01:08:24.602Z,22.69
2018-08-18T01:09:05.195Z,22.69
2018-08-18T01:09:45.772Z,22.63
2018-08-18T01:10:26.337Z,22.63
2018-08-18T01:11:06.995Z,22.68
2018-08-18T01:11:47.625Z,22.63
2018-08-18T01:12:28.173Z,22.53
2018-08-18T01:13:08.667Z,22.68
2018-08-18T01:13:49.281Z,22.62
2018-08-18T01:14:29.878Z,22.62
2018-08-18T01:15:10.312Z,22.57
2018-08-18T01:15:50.890Z,22.59
2018-08-18T01:16:31.463Z,22.53
2018-08-18T01:17:12.050Z,22.5
2018-08-18T01:17:52.631Z,22.57
2018-08-18T01:18:33.184Z,22.45
2018-08-18T01:19:13.737Z,22.54
2018-08-18T01:19:54.299Z,22.53
2018-08-18T01:20:35.153Z,22.53
2018-08-18T01:21:15.783Z,22.59
2018-08-18T01:21:56.319Z,22.54
2018-08-18T01:22:36.877Z,22.54
2018-08-18T01:23:17.449Z,22.55
2018-08-18T01:23:58.023Z,22.55
2018-08-18T01:24:38.610Z,22.6
2018-08-18T01:25:19.204Z,22.59
2018-08-18T01:25:59.783Z,22.57
2018-08-18T01:26:40.367Z,22.54
2018-08-18T01:27:20.924Z,22.57
2018-08-18T01:28:01.485Z,22.6
2018-08-18T01:28:42.054Z,22.62
2018-08-18T01:29:22.622Z,22.63
2018-08-18T01:30:03.215Z,22.57
2018-08-18T01:30:43.778Z,22.62
2018-08-18T01:31:24.346Z,22.62
2018-08-18T01:32:04.897Z,22.59
2018-08-18T01:32:45.465Z,22.63
2018-08-18T01:33:26.029Z,22.59
2018-08-18T01:34:06.593Z,22.63
2018-08-18T01:34:47.147Z,22.65
2018-08-18T01:35:27.725Z,22.59
2018-08-18T01:36:08.281Z,22.66
2018-08-18T01:36:48.869Z,22.68
2018-08-18T01:37:29.439Z,22.63
2018-08-18T01:38:10.032Z,22.68
2018-08-18T01:38:50.597Z,22.69
2018-08-18T01:39:31.174Z,22.62
2018-08-18T01:40:11.753Z,22.66
2018-08-18T01:40:52.363Z,22.75
2018-08-18T01:41:32.921Z,22.7
2018-08-18T01:42:13.474Z,22.68
2018-08-18T01:42:54.035Z,22.69
2018-08-18T01:43:34.655Z,22.69
2018-08-18T01:44:15.227Z,22.65
2018-08-18T01:44:55.801Z,22.72
2018-08-18T01:45:36.378Z,22.69
2018-08-18T01:46:16.956Z,22.65
2018-08-18T01:46:57.558Z,22.69
2018-08-18T01:47:38.107Z,22.69
2018-08-18T01:48:18.665Z,22.6
2018-08-18T01:48:59.226Z,22.66
2018-08-18T01:49:39.796Z,22.68
2018-08-18T01:50:20.396Z,22.69
2018-08-18T01:51:00.974Z,22.68
2018-08-18T01:51:41.556Z,22.63
2018-08-18T01:52:22.114Z,22.62
2018-08-18T01:53:02.688Z,22.66
2018-08-18T01:53:43.255Z,22.63
2018-08-18T01:54:23.823Z,22.69
2018-08-18T01:55:04.392Z,22.65
2018-08-18T01:55:44.946Z,22.68
2018-08-18T01:56:25.560Z,22.69
2018-08-18T01:57:06.171Z,22.63
2018-08-18T01:57:46.759Z,22.66
2018-08-18T01:58:27.333Z,22.68
2018-08-18T01:59:07.962Z,22.68
2018-08-18T01:59:48.543Z,22.68
2018-08-18T02:00:29.095Z,22.68
2018-08-18T02:01:09.651Z,22.65
2018-08-18T02:01:50.224Z,22.65
2018-08-18T02:02:30.785Z,22.63
2018-08-18T02:03:11.346Z,22.68
2018-08-18T02:03:51.944Z,22.66
2018-08-18T02:04:32.521Z,22.68
2018-08-18T02:05:13.111Z,22.66
2018-08-18T02:05:53.693Z,22.68
2018-08-18T02:06:34.255Z,22.7
2018-08-18T02:07:14.813Z,22.66
2018-08-18T02:07:55.388Z,22.66
2018-08-18T02:08:35.957Z,22.62
2018-08-18T02:09:16.523Z,22.57
2018-08-18T02:09:57.085Z,22.69
2018-08-18T02:10:37.679Z,22.65
2018-08-18T02:11:18.257Z,22.65
2018-08-18T02:11:58.831Z,22.59
2018-08-18T02:12:39.425Z,22.62
2018-08-18T02:13:20.007Z,22.57
2018-08-18T02:14:00.562Z,22.59
2018-08-18T02:14:41.127Z,22.65
2018-08-18T02:15:21.689Z,22.63
2018-08-18T02:16:02.269Z,22.68
2018-08-18T02:16:42.836Z,22.6
2018-08-18T02:17:23.388Z,22.65
2018-08-18T02:18:03.961Z,22.62
2018-08-18T02:18:44.526Z,22.55
2018-08-18T02:19:25.088Z,22.59
2018-08-18T02:20:05.672Z,22.57
2018-08-18T02:20:46.228Z,22.57
2018-08-18T02:21:26.780Z,22.55
2018-08-18T02:22:07.331Z,22.48
2018-08-18T02:22:47.912Z,22.48
2018-08-18T02:23:28.462Z,22.48
2018-08-18T02:24:09.000Z,22.44
2018-08-18T02:24:49.570Z,22.5
2018-08-18T02:25:30.177Z,22.48
2018-08-18T02:26:10.735Z,22.43
2018-08-18T02:26:51.303Z,22.41
2018-08-18T02:27:31.863Z,22.39
2018-08-18T02:28:12.427Z,22.45
2018-08-18T02:28:53.012Z,22.44
2018-08-18T02:29:33.669Z,22.47
2018-08-18T02:30:14.233Z,22.43
2018-08-18T02:30:54.832Z,22.48
2018-08-18T02:31:35.394Z,22.44
2018-08-18T02:32:15.954Z,22.43
2018-08-18T02:32:56.524Z,22.44
2018-08-18T02:33:37.122Z,22.43
2018-08-18T02:34:17.685Z,22.44
2018-08-18T02:34:58.271Z,22.43
2018-08-18T02:35:38.843Z,22.5
2018-08-18T02:36:19.402Z,22.39
2018-08-18T02:36:59.989Z,22.57
2018-08-18T02:37:40.539Z,22.47
2018-08-18T02:38:21.124Z,22.53
2018-08-18T02:39:01.708Z,22.51
2018-08-18T02:39:42.258Z,22.5
2018-08-18T02:40:22.822Z,22.43
2018-08-18T02:41:03.388Z,22.53
2018-08-18T02:41:43.961Z,22.51
2018-08-18T02:42:24.595Z,22.55
2018-08-18T02:43:05.165Z,22.57
2018-08-18T02:43:45.755Z,22.59
2018-08-18T02:44:26.324Z,22.47
2018-08-18T02:45:06.910Z,22.38
2018-08-18T02:45:47.484Z,22.41
2018-08-18T02:46:28.062Z,22.41
2018-08-18T02:47:08.648Z,22.48
2018-08-18T02:47:49.249Z,22.48
2018-08-18T02:48:29.942Z,22.45
2018-08-18T02:49:10.544Z,22.43
2018-08-18T02:49:51.122Z,22.43
2018-08-18T02:50:31.685Z,22.36
2018-08-18T02:51:12.243Z,22.38
2018-08-18T02:51:52.815Z,22.3
2018-08-18T02:52:33.423Z,22.29
2018-08-18T02:53:13.994Z,22.33
2018-08-18T02:53:54.567Z,22.35
2018-08-18T02:54:35.123Z,22.33
2018-08-18T02:55:15.700Z,22.38
2018-08-18T02:55:56.263Z,22.35
2018-08-18T02:56:36.839Z,22.33
2018-08-18T02:57:17.421Z,22.36
2018-08-18T02:57:58.012Z,22.35
2018-08-18T02:58:38.593Z,22.33
2018-08-18T02:59:19.150Z,22.35
2018-08-18T02:59:59.733Z,22.38
2018-08-18T03:00:40.297Z,22.32
2018-08-18T03:01:20.841Z,22.39
2018-08-18T03:02:01.392Z,22.39
2018-08-18T03:02:41.979Z,22.35
2018-08-18T03:03:22.563Z,22.35
2018-08-18T03:04:03.155Z,22.36
2018-08-18T03:04:43.714Z,22.38
2018-08-18T03:05:24.331Z,22.44
2018-08-18T03:06:04.891Z,22.41
2018-08-18T03:06:45.448Z,22.38
2018-08-18T03:07:26.015Z,22.3
2018-08-18T03:08:06.561Z,22.29
2018-08-18T03:08:47.121Z,22.33
2018-08-18T03:09:27.678Z,22.39
2018-08-18T03:10:08.252Z,22.23
2018-08-18T03:10:48.813Z,22.39
2018-08-18T03:11:29.370Z,22.35
2018-08-18T03:12:09.940Z,22.35
2018-08-18T03:12:50.495Z,22.38
2018-08-18T03:13:31.075Z,22.26
2018-08-18T03:14:11.647Z,22.32
2018-08-18T03:14:52.234Z,22.26
2018-08-18T03:15:32.796Z,22.25
2018-08-18T03:16:13.371Z,22.3
2018-08-18T03:16:53.933Z,22.25
2018-08-18T03:17:34.521Z,22.17
2018-08-18T03:18:15.095Z,22.18
2018-08-18T03:18:55.658Z,22.13
2018-08-18T03:19:36.219Z,22.18
2018-08-18T03:20:16.791Z,22.15
2018-08-18T03:20:57.349Z,22.28
2018-08-18T03:21:37.932Z,22.17
2018-08-18T03:22:18.512Z,22.13
2018-08-18T03:22:59.063Z,22.17
2018-08-18T03:23:39.625Z,22.15
2018-08-18T03:24:20.190Z,22.17
2018-08-18T03:25:00.773Z,22.2
2018-08-18T03:25:41.361Z,22.2
2018-08-18T03:26:21.933Z,22.15
2018-08-18T03:27:02.493Z,22.17
2018-08-18T03:27:43.061Z,22.13
2018-08-18T03:28:23.613Z,22.14
2018-08-18T03:29:04.216Z,22.1
2018-08-18T03:29:44.746Z,22.14
2018-08-18T03:30:25.307Z,22.11
2018-08-18T03:31:05.911Z,22.14
2018-08-18T03:31:46.464Z,22.1
2018-08-18T03:32:27.030Z,22.11
2018-08-18T03:33:07.610Z,22.13
2018-08-18T03:33:48.218Z,22.11
2018-08-18T03:34:28.832Z,22.07
2018-08-18T03:35:09.389Z,22.04
2018-08-18T03:35:49.958Z,22.04
2018-08-18T03:36:30.551Z,22.1
2018-08-18T03:37:11.112Z,22.08
2018-08-18T03:37:51.697Z,22.06
2018-08-18T03:38:32.266Z,22.04
2018-08-18T03:39:12.830Z,22.04
2018-08-18T03:39:53.429Z,22.08
2018-08-18T03:40:33.999Z,22.02
2018-08-18T03:41:14.557Z,22.04
2018-08-18T03:41:55.128Z,22.04
2018-08-18T03:42:35.720Z,21.98
2018-08-18T03:43:16.319Z,21.95
2018-08-18T03:43:56.904Z,22.06
2018-08-18T03:44:37.461Z,21.95
2018-08-18T03:45:18.031Z,22
2018-08-18T03:45:58.606Z,21.95
2018-08-18T03:46:39.178Z,21.92
2018-08-18T03:47:19.733Z,21.99
2018-08-18T03:48:00.298Z,21.98
2018-08-18T03:48:40.870Z,21.96
2018-08-18T03:49:21.451Z,21.88
2018-08-18T03:50:02.026Z,21.93
2018-08-18T03:50:42.580Z,22.06
2018-08-18T03:51:23.134Z,21.98
2018-08-18T03:52:03.704Z,21.96
2018-08-18T03:52:44.307Z,21.95
2018-08-18T03:53:24.889Z,21.96
2018-08-18T03:54:05.484Z,21.92
2018-08-18T03:54:46.078Z,21.91
2018-08-18T03:55:26.652Z,21.95
2018-08-18T03:56:07.234Z,21.98
2018-08-18T03:56:47.804Z,21.95
2018-08-18T03:57:28.384Z,21.92
2018-08-18T03:58:08.950Z,21.88
2018-08-18T03:58:49.505Z,21.95
2018-08-18T03:59:30.104Z,21.8
2018-08-18T04:00:10.696Z,21.91
2018-08-18T04:00:51.277Z,21.92
2018-08-18T04:01:31.911Z,21.93
2018-08-18T04:02:12.451Z,21.89
2018-08-18T04:02:53.063Z,21.79
2018-08-18T04:03:33.633Z,21.88
2018-08-18T04:04:14.181Z,21.88
2018-08-18T04:04:54.751Z,21.83
2018-08-18T04:05:35.322Z,21.76
2018-08-18T04:06:15.875Z,21.82
2018-08-18T04:06:56.436Z,21.69
2018-08-18T04:07:37.003Z,21.66
2018-08-18T04:08:17.573Z,21.79
2018-08-18T04:08:58.966Z,21.82
2018-08-18T04:09:38.694Z,21.75
2018-08-18T04:10:19.272Z,21.7
2018-08-18T04:10:59.840Z,21.76
2018-08-18T04:11:40.437Z,21.66
2018-08-18T04:12:21.024Z,21.69
2018-08-18T04:13:01.640Z,21.64
2018-08-18T04:13:42.204Z,21.66
2018-08-18T04:14:22.795Z,21.64
2018-08-18T04:15:03.408Z,21.66
2018-08-18T04:15:43.988Z,21.66
2018-08-18T04:16:24.555Z,21.66
2018-08-18T04:17:05.137Z,21.75
2018-08-18T04:17:45.708Z,21.66
2018-08-18T04:18:26.281Z,21.54
2018-08-18T04:19:06.845Z,21.54
2018-08-18T04:19:47.419Z,21.64
2018-08-18T04:20:28.017Z,21.55
2018-08-18T04:21:08.584Z,21.5
2018-08-18T04:21:49.138Z,21.48
2018-08-18T04:22:29.705Z,21.46
2018-08-18T04:23:10.265Z,21.42
2018-08-18T04:23:50.832Z,21.54
2018-08-18T04:24:31.393Z,21.5
2018-08-18T04:25:12.012Z,21.58
2018-08-18T04:25:52.512Z,21.52
2018-08-18T04:26:33.086Z,21.54
2018-08-18T04:27:13.637Z,21.54
2018-08-18T04:27:54.200Z,21.51
2018-08-18T04:28:34.762Z,21.52
2018-08-18T04:29:15.324Z,21.5
2018-08-18T04:29:55.903Z,21.45
2018-08-18T04:30:36.459Z,21.46
2018-08-18T04:31:17.050Z,21.54
2018-08-18T04:31:57.613Z,21.54
2018-08-18T04:32:38.176Z,21.48
2018-08-18T04:33:18.760Z,21.46
2018-08-18T04:33:59.319Z,21.5
2018-08-18T04:34:39.888Z,21.5
2018-08-18T04:35:20.465Z,21.46
2018-08-18T04:36:00.997Z,21.55
2018-08-18T04:36:41.563Z,21.55
2018-08-18T04:37:22.142Z,21.46
2018-08-18T04:38:02.708Z,21.46
2018-08-18T04:38:43.268Z,21.5
2018-08-18T04:39:23.825Z,21.51
2018-08-18T04:40:04.463Z,21.36
2018-08-18T04:40:45.008Z,21.4
2018-08-18T04:41:25.574Z,21.39
2018-08-18T04:42:06.126Z,21.37
2018-08-18T04:42:46.701Z,21.43
2018-08-18T04:43:27.254Z,21.4
2018-08-18T04:44:07.815Z,21.46
2018-08-18T04:44:48.381Z,21.42
2018-08-18T04:45:28.944Z,21.37
2018-08-18T04:46:09.517Z,21.46
2018-08-18T04:46:50.087Z,21.39
2018-08-18T04:47:30.669Z,21.48
2018-08-18T04:48:11.241Z,21.43
2018-08-18T04:48:51.799Z,21.51
2018-08-18T04:49:32.359Z,21.43
2018-08-18T04:50:12.910Z,21.45
2018-08-18T04:50:53.508Z,21.5
2018-08-18T04:51:34.072Z,21.45
2018-08-18T04:52:14.668Z,21.6
2018-08-18T04:52:55.227Z,21.51
2018-08-18T04:53:35.812Z,21.54
2018-08-18T04:54:16.445Z,21.48
2018-08-18T04:54:57.007Z,21.48
2018-08-18T04:55:37.589Z,21.57
2018-08-18T04:56:18.163Z,21.61
2018-08-18T04:56:58.885Z,21.46
2018-08-18T04:57:39.316Z,21.5
2018-08-18T04:58:19.866Z,21.48
2018-08-18T04:59:00.426Z,21.5
2018-08-18T04:59:40.978Z,21.48
2018-08-18T05:00:21.553Z,21.51
2018-08-18T05:01:02.146Z,21.52
2018-08-18T05:01:42.740Z,21.6
2018-08-18T05:02:23.301Z,21.62
2018-08-18T05:03:03.875Z,21.57
2018-08-18T05:03:44.581Z,21.51
2018-08-18T05:04:25.158Z,21.62
2018-08-18T05:05:05.770Z,21.51
2018-08-18T05:05:46.262Z,21.51
2018-08-18T05:06:26.836Z,21.55
2018-08-18T05:07:07.388Z,21.62
2018-08-18T05:07:47.957Z,21.61
2018-08-18T05:08:28.513Z,21.54
2018-08-18T05:09:09.076Z,21.5
2018-08-18T05:09:49.650Z,21.5
2018-08-18T05:10:30.214Z,21.5
2018-08-18T05:11:10.776Z,21.57
2018-08-18T05:11:51.361Z,21.61
2018-08-18T05:12:31.926Z,21.58
2018-08-18T05:13:12.496Z,21.51
2018-08-18T05:13:53.056Z,21.48
2018-08-18T05:14:33.631Z,21.52
2018-08-18T05:15:14.199Z,21.46
2018-08-18T05:15:54.763Z,21.42
2018-08-18T05:16:35.327Z,21.39
2018-08-18T05:17:15.885Z,21.37
2018-08-18T05:17:56.448Z,21.36
2018-08-18T05:18:37.005Z,21.39
2018-08-18T05:19:17.655Z,21.33
2018-08-18T05:19:58.340Z,21.4
2018-08-18T05:20:39.074Z,21.36
2018-08-18T05:21:19.638Z,21.4
2018-08-18T05:22:00.217Z,21.39
2018-08-18T05:22:41.020Z,21.4
2018-08-18T05:23:21.746Z,21.51
2018-08-18T05:24:02.300Z,21.5
2018-08-18T05:24:42.896Z,21.42
2018-08-18T05:25:23.491Z,21.54
2018-08-18T05:26:04.104Z,21.51
2018-08-18T05:26:44.698Z,21.43
2018-08-18T05:27:25.271Z,21.51
2018-08-18T05:28:05.831Z,21.48
2018-08-18T05:28:46.405Z,21.5
2018-08-18T05:29:27.010Z,21.54
2018-08-18T05:30:07.587Z,21.5
2018-08-18T05:30:48.158Z,21.46
2018-08-18T05:31:28.721Z,21.46
2018-08-18T05:32:09.308Z,21.5
2018-08-18T05:32:49.892Z,21.58
2018-08-18T05:33:30.452Z,21.54
2018-08-18T05:34:11.031Z,21.54
2018-08-18T05:34:51.675Z,21.58
2018-08-18T05:35:32.237Z,21.55
2018-08-18T05:36:12.805Z,21.61
2018-08-18T05:36:53.406Z,21.61
2018-08-18T05:37:34.006Z,21.5
2018-08-18T05:38:14.588Z,21.57
2018-08-18T05:38:55.166Z,21.5
2018-08-18T05:39:35.731Z,21.52
2018-08-18T05:40:16.313Z,21.57
2018-08-18T05:40:56.866Z,21.55
2018-08-18T05:41:37.428Z,21.64
2018-08-18T05:42:18.012Z,21.64
2018-08-18T05:42:58.619Z,21.69
2018-08-18T05:43:39.251Z,21.58
2018-08-18T05:44:19.905Z,21.67
2018-08-18T05:45:00.537Z,21.72
2018-08-18T05:45:41.118Z,21.64
2018-08-18T05:46:21.674Z,21.72
2018-08-18T05:47:02.274Z,21.69
2018-08-18T05:47:42.988Z,21.69
2018-08-18T05:48:23.457Z,21.72
2018-08-18T05:49:04.027Z,21.69
2018-08-18T05:49:44.588Z,21.64
2018-08-18T05:50:25.160Z,21.75
2018-08-18T05:51:05.717Z,21.61
2018-08-18T05:51:46.292Z,21.67
2018-08-18T05:52:26.891Z,21.66
2018-08-18T05:53:07.438Z,21.58
2018-08-18T05:53:48.004Z,21.64
2018-08-18T05:54:28.586Z,21.54
2018-08-18T05:55:09.162Z,21.54
2018-08-18T05:55:49.732Z,21.64
2018-08-18T05:56:30.294Z,21.6
2018-08-18T05:57:10.850Z,21.5
2018-08-18T05:57:51.419Z,21.5
2018-08-18T05:58:32.022Z,21.58
2018-08-18T05:59:12.595Z,21.5
2018-08-18T05:59:53.164Z,21.46
2018-08-18T06:00:33.741Z,21.54
2018-08-18T06:01:14.295Z,21.48
2018-08-18T06:01:54.872Z,21.45
2018-08-18T06:02:35.442Z,21.54
2018-08-18T06:03:16.061Z,21.51
2018-08-18T06:03:56.683Z,21.62
2018-08-18T06:04:37.231Z,21.66
2018-08-18T06:05:17.795Z,21.6
2018-08-18T06:05:58.353Z,21.64
2018-08-18T06:06:38.994Z,21.66
2018-08-18T06:07:19.532Z,21.72
2018-08-18T06:08:00.126Z,21.7
2018-08-18T06:08:40.745Z,21.83
2018-08-18T06:09:21.297Z,21.83
2018-08-18T06:10:02.206Z,21.85
2018-08-18T06:11:55.064Z,21.91
2018-08-18T06:12:36.649Z,21.92
2018-08-18T06:13:19.015Z,21.92
2018-08-18T06:13:59.860Z,22
2018-08-18T06:14:40.772Z,22.06
2018-08-18T06:15:21.372Z,22.02
2018-08-18T06:16:01.940Z,22.11
2018-08-18T06:16:42.515Z,22.22
2018-08-18T06:17:23.097Z,22.26
2018-08-18T06:18:04.046Z,22.28
2018-08-18T06:18:44.718Z,22.28
2018-08-18T06:19:25.475Z,22.29
2018-08-18T06:20:06.208Z,22.45
2018-08-18T06:20:46.850Z,22.44
2018-08-18T06:21:27.449Z,22.57
2018-08-18T06:22:08.088Z,22.59
2018-08-18T06:22:49.031Z,22.66
2018-08-18T06:23:30.969Z,22.8
2018-08-18T06:24:11.550Z,22.75
2018-08-18T06:24:52.119Z,22.84
2018-08-18T06:25:32.686Z,22.8
2018-08-18T06:26:13.246Z,22.9
2018-08-18T06:26:53.853Z,22.87
2018-08-18T06:27:34.415Z,22.94
2018-08-18T06:28:15.011Z,23.02
2018-08-18T06:28:55.573Z,23.08
2018-08-18T06:29:36.126Z,23.08
2018-08-18T06:30:16.678Z,23.2
2018-08-18T06:30:57.240Z,23.21
2018-08-18T06:31:37.807Z,23.17
2018-08-18T06:32:18.375Z,23.21
2018-08-18T06:32:58.933Z,23.43
2018-08-18T06:33:39.510Z,23.39
2018-08-18T06:34:20.152Z,23.44
2018-08-18T06:35:00.729Z,23.44
2018-08-18T06:35:41.230Z,23.59
2018-08-18T06:36:21.872Z,23.63
2018-08-18T06:37:02.393Z,23.71
2018-08-18T06:37:42.961Z,23.81
2018-08-18T06:38:23.527Z,23.87
2018-08-18T06:39:04.105Z,23.95
2018-08-18T06:39:44.674Z,23.96
2018-08-18T06:40:25.244Z,23.98
2018-08-18T06:41:05.847Z,24.13
2018-08-18T06:41:46.699Z,24.05
2018-08-18T06:42:27.010Z,24.16
2018-08-18T06:43:07.569Z,24.16
2018-08-18T06:43:48.148Z,24.16
2018-08-18T06:44:28.710Z,24.18
2018-08-18T06:45:09.324Z,24.21
2018-08-18T06:45:49.887Z,24.23
2018-08-18T06:46:30.454Z,24.32
2018-08-18T06:47:11.031Z,24.3
2018-08-18T06:47:51.580Z,24.29
2018-08-18T06:48:32.144Z,24.42
2018-08-18T06:49:12.710Z,24.48
2018-08-18T06:49:53.291Z,24.53
2018-08-18T06:50:33.874Z,24.51
2018-08-18T06:51:14.466Z,24.65
2018-08-18T06:51:55.098Z,24.6
2018-08-18T06:52:35.654Z,24.69
2018-08-18T06:53:16.242Z,24.73
2018-08-18T06:53:56.848Z,24.89
2018-08-18T06:54:37.477Z,24.81
2018-08-18T06:55:18.266Z,24.81
2018-08-18T06:55:58.676Z,24.92
2018-08-18T06:56:39.400Z,24.95
2018-08-18T06:57:19.975Z,24.91
2018-08-18T06:58:00.540Z,24.95
2018-08-18T06:58:41.132Z,25.03
2018-08-18T06:59:21.696Z,25.08
2018-08-18T07:00:02.263Z,25.14
2018-08-18T07:00:42.825Z,25.11
2018-08-18T07:01:23.393Z,25.26
2018-08-18T07:02:03.966Z,25.35
2018-08-18T07:02:44.538Z,25.35
2018-08-18T07:03:25.113Z,25.32
2018-08-18T07:04:05.691Z,25.29
2018-08-18T07:04:46.248Z,25.41
2018-08-18T07:05:26.820Z,25.41
2018-08-18T07:06:07.399Z,25.38
2018-08-18T07:06:47.957Z,25.47
2018-08-18T07:07:28.533Z,25.53
2018-08-18T07:08:09.103Z,25.47
2018-08-18T07:08:49.671Z,25.47
2018-08-18T07:09:30.251Z,25.4
2018-08-18T07:10:10.811Z,25.43
2018-08-18T07:10:51.405Z,25.4
2018-08-18T07:11:31.984Z,25.5
2018-08-18T07:12:12.686Z,25.47
2018-08-18T07:12:53.250Z,25.54
2018-08-18T07:13:33.815Z,25.47
2018-08-18T07:14:14.380Z,25.58
2018-08-18T07:14:56.220Z,25.5
2018-08-18T07:15:36.826Z,25.46
2018-08-18T07:16:17.395Z,25.5
2018-08-18T07:16:58.004Z,25.7
2018-08-18T07:17:38.731Z,25.75
2018-08-18T07:18:19.250Z,25.93
2018-08-18T07:18:59.849Z,25.95
2018-08-18T07:19:40.492Z,26.1
2018-08-18T07:20:21.050Z,26.09
2018-08-18T07:21:01.616Z,26.16
2018-08-18T07:21:42.183Z,26.18
2018-08-18T07:22:22.830Z,26.23
2018-08-18T07:23:03.414Z,26.29
2018-08-18T07:23:43.964Z,26.23
2018-08-18T07:24:24.534Z,26.4
2018-08-18T07:25:05.109Z,26.37
2018-08-18T07:25:45.677Z,26.38
2018-08-18T07:26:26.230Z,26.48
2018-08-18T07:27:06.820Z,26.51
2018-08-18T07:27:47.412Z,26.52
2018-08-18T07:28:28.062Z,26.52
2018-08-18T07:29:08.730Z,26.55
2018-08-18T07:29:49.152Z,26.6
2018-08-18T07:30:29.769Z,26.6
2018-08-18T07:31:10.376Z,26.66
2018-08-18T07:31:50.932Z,26.7
2018-08-18T07:32:31.513Z,26.77
2018-08-18T07:33:12.095Z,26.77
2018-08-18T07:33:52.663Z,26.75
2018-08-18T07:34:33.244Z,26.75
2018-08-18T07:35:13.845Z,26.83
2018-08-18T07:35:54.418Z,26.84
2018-08-18T07:36:35.136Z,26.8
2018-08-18T07:37:15.893Z,26.95
2018-08-18T07:37:56.299Z,26.95
2018-08-18T07:38:36.905Z,26.78
2018-08-18T07:39:17.478Z,26.84
2018-08-18T07:39:58.045Z,26.89
2018-08-18T07:40:38.609Z,26.84
2018-08-18T07:41:19.222Z,26.8
2018-08-18T07:41:59.780Z,26.84
2018-08-18T07:42:40.360Z,26.81
2018-08-18T07:43:20.927Z,26.84
2018-08-18T07:44:01.516Z,26.8
2018-08-18T07:44:42.081Z,26.83
2018-08-18T07:45:22.654Z,26.8
2018-08-18T07:46:03.266Z,26.81
2018-08-18T07:46:43.906Z,26.8
2018-08-18T07:47:24.469Z,26.81
2018-08-18T07:48:05.095Z,26.81
2018-08-18T07:48:45.593Z,26.83
2018-08-18T07:49:26.164Z,26.85
2018-08-18T07:50:06.725Z,26.92
2018-08-18T07:50:47.509Z,26.83
2018-08-18T07:51:28.066Z,26.96
2018-08-18T07:52:08.624Z,26.9
2018-08-18T07:52:49.207Z,26.97
2018-08-18T07:53:29.887Z,26.92
2018-08-18T07:54:10.394Z,26.93
2018-08-18T07:54:50.949Z,26.8
2018-08-18T07:55:31.618Z,26.83
2018-08-18T07:56:12.207Z,26.85
2018-08-18T07:56:52.863Z,26.74
2018-08-18T07:57:33.473Z,26.73
2018-08-18T07:58:14.062Z,26.6
2018-08-18T07:58:54.627Z,26.55
2018-08-18T07:59:35.226Z,26.43
2018-08-18T08:00:15.773Z,26.37
2018-08-18T08:00:56.341Z,26.4
2018-08-18T08:01:37.031Z,26.36
2018-08-18T08:02:17.591Z,26.31
2018-08-18T08:02:58.235Z,26.36
2018-08-18T08:03:38.915Z,26.28
2018-08-18T08:04:19.499Z,26.26
2018-08-18T08:05:00.133Z,26.28
2018-08-18T08:05:40.697Z,26.25
2018-08-18T08:06:21.237Z,26.1
2018-08-18T08:07:01.838Z,26.06
2018-08-18T08:07:42.422Z,26.09
2018-08-18T08:08:23.000Z,26.03
2018-08-18T08:09:03.568Z,25.95
2018-08-18T08:09:44.131Z,25.87
2018-08-18T08:10:24.712Z,25.91
2018-08-18T08:11:05.274Z,25.81
2018-08-18T08:11:45.836Z,25.72
2018-08-18T08:12:26.426Z,25.65
2018-08-18T08:13:07.013Z,25.54
2018-08-18T08:13:47.572Z,25.6
2018-08-18T08:14:28.138Z,25.43
2018-08-18T08:15:08.754Z,25.47
2018-08-18T08:15:49.308Z,25.38
2018-08-18T08:16:29.874Z,25.46
2018-08-18T08:17:10.441Z,25.35
2018-08-18T08:17:51.015Z,25.31
2018-08-18T08:18:31.585Z,25.25
2018-08-18T08:19:12.156Z,25.22
2018-08-18T08:19:52.724Z,25.17
2018-08-18T08:20:33.296Z,25.1
2018-08-18T08:21:13.857Z,25.11
2018-08-18T08:21:54.427Z,24.95
2018-08-18T08:22:35.021Z,24.85
2018-08-18T08:23:15.682Z,24.89
2018-08-18T08:23:56.248Z,24.78
2018-08-18T08:24:36.875Z,24.76
2018-08-18T08:25:17.442Z,24.68
2018-08-18T08:25:58.031Z,24.57
2018-08-18T08:26:38.603Z,24.6
2018-08-18T08:27:19.178Z,24.6
2018-08-18T08:27:59.777Z,24.43
2018-08-18T08:28:40.437Z,24.55
2018-08-18T08:29:21.018Z,24.53
2018-08-18T08:30:01.603Z,24.47
2018-08-18T08:30:42.178Z,24.4
2018-08-18T08:31:22.791Z,24.4
2018-08-18T08:32:03.338Z,24.33
2018-08-18T08:32:43.903Z,24.3
2018-08-18T08:33:24.464Z,24.29
2018-08-18T08:34:05.022Z,24.29
2018-08-18T08:34:45.593Z,24.21
2018-08-18T08:35:26.169Z,24.24
2018-08-18T08:36:06.741Z,24.21
2018-08-18T08:36:47.339Z,24.32
2018-08-18T08:37:27.914Z,24.2
2018-08-18T08:38:08.490Z,24.3
2018-08-18T08:38:49.064Z,24.3
2018-08-18T08:39:29.645Z,24.3
2018-08-18T08:40:10.214Z,24.32
2018-08-18T08:40:50.781Z,24.32
2018-08-18T08:41:31.368Z,24.3
2018-08-18T08:42:11.929Z,24.24
2018-08-18T08:42:52.527Z,24.39
2018-08-18T08:43:33.044Z,24.35
2018-08-18T08:44:13.619Z,24.28
2018-08-18T08:44:54.178Z,24.32
2018-08-18T08:45:34.737Z,24.42
2018-08-18T08:46:15.441Z,24.33